Time;durP1;ratioP1;P1;durP2;ratioP2;P2;SDS_P1;SDS_P2;PMS_P1;PMS_P2;Temp;Humidity;BMP_temperature;BMP_pressure;BME280_temperature;BME280_humidity;BME280_pressure;Samples;Min_cycle;Max_cycle;Signal;HPM_P1;HPM_P2
2022/07/21 00:01:51;;;;;;;5.10;4.47;;;26.50;49.80;;;;;;6069913;23;92388;-89
2022/07/21 00:04:17;;;;;;;9.48;4.93;;;26.50;49.90;;;;;;6033008;23;94502;-89
2022/07/21 00:06:43;;;;;;;6.72;4.20;;;26.50;49.90;;;;;;6031878;23;97688;-90
2022/07/21 00:09:10;;;;;;;4.53;4.13;;;26.40;49.90;;;;;;6032377;23;92515;-89
2022/07/21 00:11:56;;;;;;;5.20;4.70;;;26.50;50.00;;;;;;6034512;23;92259;-89
2022/07/21 00:14:22;;;;;;;5.00;4.20;;;26.40;50.00;;;;;;6034106;23;96820;-90
2022/07/21 00:16:47;;;;;;;5.20;4.47;;;26.50;50.10;;;;;;6034787;23;93438;-90
2022/07/21 00:19:13;;;;;;;6.82;4.97;;;26.40;50.10;;;;;;6035537;23;91906;-89
2022/07/21 00:21:39;;;;;;;6.40;4.68;;;26.40;50.10;;;;;;6035018;23;91196;-90
2022/07/21 00:24:05;;;;;;;5.40;4.47;;;26.40;50.10;;;;;;6035766;23;93896;-90
2022/07/21 00:26:31;;;;;;;4.85;4.35;;;26.40;50.10;;;;;;6035779;23;92751;-89
2022/07/21 00:28:56;;;;;;;6.38;4.47;;;26.40;50.20;;;;;;6010426;23;93277;-89
2022/07/21 00:31:22;;;;;;;5.53;4.63;;;26.40;50.20;;;;;;6035405;23;91936;-89
2022/07/21 00:33:50;;;;;;;5.13;4.28;;;26.40;50.20;;;;;;6035736;23;95645;-89
2022/07/21 00:36:17;;;;;;;4.50;4.10;;;26.40;50.20;;;;;;6092169;23;92473;-89
2022/07/21 00:38:42;;;;;;;6.53;4.32;;;26.40;50.20;;;;;;6099072;23;92269;-90
2022/07/21 00:41:08;;;;;;;7.03;4.78;;;26.40;50.20;;;;;;6097503;23;91878;-89
2022/07/21 00:43:51;;;;;;;4.85;4.35;;;26.40;50.40;;;;;;6097536;23;93569;-89
2022/07/21 00:46:20;;;;;;;7.30;4.60;;;26.40;50.40;;;;;;6097407;23;93275;-89
2022/07/21 00:48:46;;;;;;;5.22;4.30;;;26.40;50.30;;;;;;6071353;23;91921;-90
2022/07/21 00:51:12;;;;;;;6.90;4.60;;;26.40;50.40;;;;;;6097878;23;91888;-89
2022/07/21 00:53:37;;;;;;;4.95;4.40;;;26.30;50.40;;;;;;6097273;23;94087;-90
2022/07/21 00:56:04;;;;;;;5.25;4.15;;;26.40;50.50;;;;;;6095251;23;97056;-90
2022/07/21 00:58:29;;;;;;;5.32;4.82;;;26.40;50.70;;;;;;6098176;23;91978;-89
2022/07/21 01:00:55;;;;;;;5.18;4.50;;;26.30;51.40;;;;;;6071647;23;91982;-89
2022/07/21 01:03:21;;;;;;;4.90;4.40;;;26.40;50.80;;;;;;6097785;23;93682;-90
2022/07/21 01:05:47;;;;;;;4.63;4.18;;;26.40;50.90;;;;;;6070531;23;94985;-90
2022/07/21 01:08:14;;;;;;;5.30;4.20;;;26.40;50.90;;;;;;6071658;23;91883;-91
2022/07/21 01:10:39;;;;;;;6.00;5.10;;;26.30;50.90;;;;;;6097564;23;91093;-90
2022/07/21 01:13:05;;;;;;;5.47;4.20;;;26.40;50.90;;;;;;6069849;23;96448;-89
2022/07/21 01:15:31;;;;;;;5.45;4.60;;;26.40;51.20;;;;;;6096738;23;93223;-89
2022/07/21 01:18:04;;;;;;;5.03;4.22;;;26.40;51.00;;;;;;6097290;23;93214;-90
2022/07/21 01:20:34;;;;;;;6.13;4.57;;;26.30;50.90;;;;;;6098647;23;93048;-90
2022/07/21 01:23:00;;;;;;;7.32;4.55;;;26.30;50.70;;;;;;6097014;23;92741;-89
2022/07/21 01:25:25;;;;;;;4.97;4.18;;;26.30;51.00;;;;;;6070157;23;94598;-90
2022/07/21 01:27:51;;;;;;;5.55;5.03;;;26.30;51.00;;;;;;6097841;23;92256;-90
2022/07/21 01:30:17;;;;;;;5.05;4.35;;;26.30;51.20;;;;;;6098162;23;91784;-89
2022/07/21 01:32:42;;;;;;;5.30;4.30;;;26.30;51.20;;;;;;6070575;23;96130;-89
2022/07/21 01:35:11;;;;;;;4.88;4.38;;;26.30;51.20;;;;;;6071069;23;94691;-90
2022/07/21 01:37:41;;;;;;;5.85;4.45;;;26.30;51.20;;;;;;6098213;23;92428;-89
2022/07/21 01:42:52;;;;;;;4.43;4.03;;;26.30;51.20;;;;;;6096668;23;93185;-90
2022/07/21 01:45:19;;;;;;;5.15;4.55;;;26.30;51.20;;;;;;6097373;23;93378;-89
2022/07/21 01:47:45;;;;;;;6.22;4.68;;;26.30;51.20;;;;;;6097772;23;92091;-89
2022/07/21 01:50:10;;;;;;;4.63;4.22;;;26.30;51.50;;;;;;6071657;23;92333;-90
2022/07/21 01:52:36;;;;;;;4.93;4.20;;;26.30;51.30;;;;;;6070970;23;95917;-89
2022/07/21 01:55:02;;;;;;;6.75;4.78;;;26.30;51.30;;;;;;6071410;23;95182;-89
2022/07/21 01:57:28;;;;;;;5.38;4.47;;;26.30;51.40;;;;;;6097286;23;91828;-91
2022/07/21 01:59:54;;;;;;;4.72;4.22;;;26.30;51.60;;;;;;6098052;23;91621;-90
2022/07/21 02:02:21;;;;;;;5.10;4.60;;;26.30;51.60;;;;;;6098422;23;93618;-89
2022/07/21 02:04:48;;;;;;;5.40;4.10;;;26.30;51.60;;;;;;6097575;23;92850;-90
2022/07/21 02:07:14;;;;;;;4.57;4.18;;;26.20;51.60;;;;;;6070969;23;93067;-90
2022/07/21 02:09:39;;;;;;;5.47;4.35;;;26.20;51.50;;;;;;6070508;23;92421;-89
2022/07/21 02:12:05;;;;;;;4.20;3.80;;;26.20;51.50;;;;;;6098130;23;93316;-90
2022/07/21 02:14:31;;;;;;;4.88;4.18;;;26.20;51.70;;;;;;6097542;23;93815;-90
2022/07/21 02:16:57;;;;;;;4.90;4.40;;;26.20;51.60;;;;;;6097443;23;91896;-90
2022/07/21 02:19:22;;;;;;;4.63;4.20;;;26.20;51.90;;;;;;6097761;23;92190;-89
2022/07/21 02:21:48;;;;;;;4.93;4.05;;;26.20;51.80;;;;;;6070067;23;94636;-90
2022/07/21 02:24:14;;;;;;;4.13;3.72;;;26.20;51.80;;;;;;6095668;23;95643;-89
2022/07/21 02:26:39;;;;;;;4.30;3.90;;;26.20;52.00;;;;;;6070736;23;91969;-89
2022/07/21 02:29:05;;;;;;;4.72;4.20;;;26.20;52.00;;;;;;6097731;23;92304;-90
2022/07/21 02:31:41;;;;;;;4.30;3.90;;;26.20;52.00;;;;;;6097042;23;95028;-89
2022/07/21 02:34:06;;;;;;;4.88;4.22;;;26.20;52.60;;;;;;6070117;23;97033;-89
2022/07/21 02:36:33;;;;;;;5.05;4.55;;;26.20;52.00;;;;;;6098537;23;92167;-90
2022/07/21 02:38:58;;;;;;;5.60;4.38;;;26.20;52.10;;;;;;6096624;23;92319;-89
2022/07/21 02:41:24;;;;;;;4.93;4.40;;;26.20;52.00;;;;;;6095452;23;95191;-90
2022/07/21 02:43:49;;;;;;;4.93;4.43;;;26.20;52.10;;;;;;6096747;23;93307;-89
2022/07/21 02:46:15;;;;;;;4.30;3.90;;;26.20;52.10;;;;;;6097762;23;91865;-89
2022/07/21 02:48:41;;;;;;;5.10;4.35;;;26.20;52.10;;;;;;6097656;23;91058;-89
2022/07/21 02:51:06;;;;;;;5.05;4.50;;;26.20;51.90;;;;;;6070994;23;95837;-90
2022/07/21 02:53:32;;;;;;;6.40;3.88;;;26.20;52.00;;;;;;6097027;23;92328;-89
2022/07/21 02:55:57;;;;;;;4.20;3.80;;;26.20;52.00;;;;;;6097378;23;93042;-89
2022/07/21 02:58:28;;;;;;;4.43;4.03;;;26.20;52.20;;;;;;6095025;23;92392;-89
2022/07/21 03:01:05;;;;;;;4.40;4.00;;;26.20;52.10;;;;;;6096495;23;92750;-89
2022/07/21 03:03:34;;;;;;;4.68;4.28;;;26.30;52.20;;;;;;6070470;23;94942;-89
2022/07/21 03:06:00;;;;;;;;;;;26.20;52.20;;;;;;6071486;23;91894;-89
2022/07/21 03:08:27;;;;;;;4.50;4.10;;;26.20;52.20;;;;;;6098656;23;92322;-89
2022/07/21 03:10:53;;;;;;;4.15;3.75;;;26.20;52.20;;;;;;6096318;23;93514;-89
2022/07/21 03:13:19;;;;;;;4.70;3.90;;;26.20;52.10;;;;;;6098356;23;92930;-89
2022/07/21 03:15:45;;;;;;;4.32;3.92;;;26.20;52.20;;;;;;6070005;23;91861;-89
2022/07/21 03:18:10;;;;;;;4.53;3.85;;;26.20;52.30;;;;;;6097144;23;92228;-89
2022/07/21 03:20:38;;;;;;;4.55;4.15;;;26.20;52.10;;;;;;6095258;23;94444;-89
2022/07/21 03:23:04;;;;;;;4.30;3.90;;;26.20;52.10;;;;;;6069526;23;97101;-88
2022/07/21 03:25:31;;;;;;;4.15;3.70;;;26.20;52.10;;;;;;6097070;23;91877;-89
2022/07/21 03:27:56;;;;;;;4.32;3.78;;;26.20;52.20;;;;;;6096373;23;91955;-89
2022/07/21 03:30:22;;;;;;;4.43;4.03;;;26.20;52.20;;;;;;6070083;23;95166;-89
2022/07/21 03:32:49;;;;;;;4.82;4.35;;;26.20;52.40;;;;;;6096441;23;93087;-90
2022/07/21 03:35:15;;;;;;;5.00;4.00;;;26.20;52.40;;;;;;6097276;23;92253;-89
2022/07/21 03:37:50;;;;;;;4.32;3.92;;;26.20;52.20;;;;;;6097955;23;91399;-89
2022/07/21 03:40:19;;;;;;;4.63;4.18;;;26.20;52.50;;;;;;6095960;23;93682;-88
2022/07/21 03:42:48;;;;;;;4.20;3.80;;;26.20;52.30;;;;;;6093750;23;92734;-89
2022/07/21 03:45:16;;;;;;;4.90;3.72;;;26.20;52.50;;;;;;6067866;23;92835;-89
2022/07/21 03:47:42;;;;;;;4.88;4.32;;;26.10;52.50;;;;;;6095814;23;92222;-89
2022/07/21 03:50:08;;;;;;;4.13;3.75;;;26.10;52.60;;;;;;6094797;23;94233;-89
2022/07/21 03:52:34;;;;;;;4.78;3.95;;;26.10;52.30;;;;;;6096644;23;93747;-89
2022/07/21 03:55:09;;;;;;;4.38;3.97;;;26.10;52.50;;;;;;6097493;23;91816;-88
2022/07/21 03:57:41;;;;;;;4.15;3.40;;;26.10;52.30;;;;;;6034655;23;92357;-89
2022/07/21 04:00:10;;;;;;;4.72;4.30;;;26.10;52.50;;;;;;6035874;23;93604;-89
2022/07/21 04:02:36;;;;;;;4.30;3.60;;;26.10;52.50;;;;;;6036606;23;92968;-89
2022/07/21 04:05:04;;;;;;;4.47;3.83;;;26.10;52.60;;;;;;6012059;23;91820;-89
2022/07/21 04:07:30;;;;;;;4.10;3.70;;;26.10;52.60;;;;;;6035943;23;92434;-89
2022/07/21 04:09:55;;;;;;;4.78;4.20;;;26.10;52.50;;;;;;6035678;23;93785;-89
2022/07/21 04:12:26;;;;;;;4.03;3.63;;;26.10;52.70;;;;;;6036628;23;93235;-89
2022/07/21 04:14:54;;;;;;;4.35;3.95;;;26.10;52.60;;;;;;6036090;23;92335;-89
2022/07/21 04:17:20;;;;;;;4.65;4.25;;;26.10;52.60;;;;;;6037101;23;92316;-89
2022/07/21 04:19:45;;;;;;;5.72;4.47;;;26.10;52.70;;;;;;6036674;23;93196;-89
2022/07/21 04:22:11;;;;;;;4.25;3.85;;;26.10;52.70;;;;;;6035673;23;95997;-89
2022/07/21 04:24:36;;;;;;;4.10;3.70;;;26.10;52.80;;;;;;6011527;23;91914;-89
2022/07/21 04:27:02;;;;;;;4.57;4.18;;;26.10;52.80;;;;;;6037085;23;91619;-89
2022/07/21 04:29:28;;;;;;;4.38;3.97;;;26.10;52.70;;;;;;6067564;23;95272;-90
2022/07/21 04:31:54;;;;;;;4.32;3.92;;;26.10;52.70;;;;;;6097187;23;92667;-89
2022/07/21 04:34:20;;;;;;;4.20;3.80;;;26.10;52.90;;;;;;6098655;23;92738;-89
2022/07/21 04:36:46;;;;;;;4.30;3.90;;;26.10;52.90;;;;;;6071155;23;91843;-89
2022/07/21 04:39:11;;;;;;;4.43;4.03;;;26.10;52.90;;;;;;6071371;23;95381;-89
2022/07/21 04:41:37;;;;;;;3.90;3.50;;;26.10;52.90;;;;;;6096658;23;92353;-89
2022/07/21 04:44:03;;;;;;;4.20;3.80;;;26.10;53.00;;;;;;6097769;23;92121;-89
2022/07/21 04:46:28;;;;;;;4.40;4.00;;;26.10;52.90;;;;;;6097491;23;92042;-89
2022/07/21 04:48:54;;;;;;;4.35;3.95;;;26.10;52.80;;;;;;6096860;23;93612;-89
2022/07/21 04:51:19;;;;;;;4.55;4.00;;;26.10;52.80;;;;;;6097659;23;95477;-89
2022/07/21 04:53:45;;;;;;;4.45;3.65;;;26.10;53.00;;;;;;6097777;23;91738;-88
2022/07/21 04:56:11;;;;;;;4.40;4.00;;;26.10;53.10;;;;;;6071486;23;91913;-89
2022/07/21 04:58:36;;;;;;;4.38;4.07;;;26.10;53.00;;;;;;6095813;23;94122;-88
2022/07/21 05:01:02;;;;;;;4.40;4.00;;;26.10;52.80;;;;;;6070776;23;96068;-89
2022/07/21 05:03:30;;;;;;;4.15;3.65;;;26.10;52.90;;;;;;6098363;23;91889;-89
2022/07/21 05:05:58;;;;;;;4.35;3.95;;;26.10;53.00;;;;;;6070856;23;92282;-89
2022/07/21 05:08:26;;;;;;;4.63;4.15;;;26.10;52.90;;;;;;6070644;23;96356;-90
2022/07/21 05:10:52;;;;;;;4.00;3.60;;;26.10;53.00;;;;;;6069685;23;96332;-90
2022/07/21 05:13:17;;;;;;;4.32;3.90;;;26.10;53.00;;;;;;6096934;23;92275;-89
2022/07/21 05:15:43;;;;;;;4.03;3.67;;;26.10;52.80;;;;;;6096105;23;91201;-89
2022/07/21 05:18:08;;;;;;;3.72;3.42;;;26.10;53.00;;;;;;6097119;23;93655;-88
2022/07/21 05:20:34;;;;;;;4.07;3.70;;;26.10;53.00;;;;;;6096671;23;93241;-89
2022/07/21 05:23:01;;;;;;;4.05;3.75;;;26.10;53.00;;;;;;6096902;23;92937;-89
2022/07/21 05:25:28;;;;;;;4.22;3.83;;;26.00;53.00;;;;;;6097597;23;91773;-89
2022/07/21 05:27:54;;;;;;;4.43;4.03;;;26.10;53.10;;;;;;6096793;23;93378;-89
2022/07/21 05:30:20;;;;;;;4.47;4.05;;;26.10;53.30;;;;;;6070567;23;94046;-89
2022/07/21 05:32:46;;;;;;;4.25;3.85;;;26.10;53.20;;;;;;6098780;23;92273;-88
2022/07/21 05:35:12;;;;;;;3.88;3.58;;;26.10;53.10;;;;;;6071739;23;91867;-88
2022/07/21 05:37:41;;;;;;;4.85;3.70;;;26.10;53.20;;;;;;6097528;23;91927;-89
2022/07/21 05:40:08;;;;;;;4.40;4.00;;;26.10;53.20;;;;;;6097494;23;92621;-89
2022/07/21 05:42:35;;;;;;;4.78;4.28;;;26.00;53.00;;;;;;6070709;23;92156;-89
2022/07/21 05:45:01;;;;;;;3.75;3.45;;;26.00;53.00;;;;;;6097669;23;92405;-89
2022/07/21 05:47:29;;;;;;;4.03;3.63;;;26.10;53.10;;;;;;6096477;23;94100;-89
2022/07/21 05:49:56;;;;;;;4.20;3.80;;;26.10;53.20;;;;;;6064535;23;97731;-88
2022/07/21 05:52:22;;;;;;;4.05;3.65;;;26.00;53.30;;;;;;6040448;23;91819;-89
2022/07/21 05:54:48;;;;;;;4.18;3.78;;;26.00;53.40;;;;;;6065371;23;92346;-89
2022/07/21 05:57:13;;;;;;;4.47;3.78;;;26.10;53.30;;;;;;6063656;23;93587;-90
2022/07/21 05:59:39;;;;;;;3.53;3.08;;;26.10;53.30;;;;;;6064663;23;93031;-89
2022/07/21 06:02:05;;;;;;;4.43;4.03;;;26.10;53.30;;;;;;6065054;23;91808;-89
2022/07/21 06:04:30;;;;;;;4.90;4.35;;;26.10;53.30;;;;;;6065513;23;91484;-89
2022/07/21 06:06:56;;;;;;;4.30;3.90;;;26.10;53.20;;;;;;6064818;23;92999;-89
2022/07/21 06:09:21;;;;;;;3.70;3.40;;;26.10;53.20;;;;;;6039869;23;96524;-89
2022/07/21 06:11:47;;;;;;;3.90;3.60;;;26.00;53.30;;;;;;6066696;23;92963;-86
2022/07/21 06:14:13;;;;;;;7.18;3.67;;;26.00;53.20;;;;;;6078874;23;92470;-88
2022/07/21 06:16:39;;;;;;;6.75;4.70;;;26.10;53.10;;;;;;6096992;23;93329;-87
2022/07/21 06:19:07;;;;;;;8.63;6.63;;;26.10;53.90;;;;;;6097247;23;92785;-87
2022/07/21 06:21:34;;;;;;;12.10;7.32;;;26.10;54.60;;;;;;6097777;23;91785;-85
2022/07/21 06:23:59;;;;;;;8.75;6.45;;;26.10;55.00;;;;;;6096961;23;92209;-86
2022/07/21 06:26:25;;;;;;;13.20;7.47;;;26.10;54.90;;;;;;6098996;23;93214;-86
2022/07/21 06:28:51;;;;;;;19.58;8.32;;;26.10;54.90;;;;;;6096339;23;93619;-86
2022/07/21 06:31:26;;;;;;;12.90;8.10;;;26.20;55.10;;;;;;6097045;23;92150;-86
2022/07/21 06:33:52;;;;;;;12.20;7.97;;;26.10;55.40;;;;;;6096998;23;91806;-86
2022/07/21 06:36:18;;;;;;;12.60;7.68;;;26.10;55.70;;;;;;6096570;23;93666;-85
2022/07/21 06:38:44;;;;;;;12.90;8.00;;;26.10;55.70;;;;;;6094869;23;96062;-85
2022/07/21 06:41:10;;;;;;;12.95;8.25;;;26.10;56.00;;;;;;6072091;23;91938;-86
2022/07/21 06:43:36;;;;;;;11.20;7.75;;;26.10;56.10;;;;;;6099163;23;92321;-87
2022/07/21 06:46:02;;;;;;;12.30;7.65;;;26.10;56.30;;;;;;6096845;23;92587;-86
2022/07/21 06:48:28;;;;;;;14.07;7.68;;;26.10;56.40;;;;;;6097212;23;93481;-86
2022/07/21 06:50:55;;;;;;;16.55;8.02;;;26.10;56.30;;;;;;6098319;23;92390;-85
2022/07/21 06:53:21;;;;;;;13.38;7.65;;;26.10;56.60;;;;;;6097102;23;92032;-85
2022/07/21 06:55:49;;;;;;;11.95;7.57;;;26.00;56.70;;;;;;6096488;23;93462;-85
2022/07/21 06:58:17;;;;;;;12.40;7.28;;;26.10;57.50;;;;;;6094461;23;95785;-85
2022/07/21 07:00:44;;;;;;;15.13;8.32;;;26.10;56.80;;;;;;6095873;23;93283;-85
2022/07/21 07:03:10;;;;;;;14.70;7.57;;;26.00;56.90;;;;;;6068597;23;92293;-85
2022/07/21 07:05:36;;;;;;;19.77;8.25;;;26.10;57.00;;;;;;6069196;23;96242;-86
2022/07/21 07:08:05;;;;;;;16.50;8.25;;;26.00;57.10;;;;;;6068965;23;95237;-86
2022/07/21 07:10:31;;;;;;;;;;;26.00;57.10;;;;;;6097304;23;91908;-86
2022/07/21 07:12:57;;;;;;;14.57;7.68;;;26.00;57.00;;;;;;6071466;23;92470;-85
2022/07/21 07:15:23;;;;;;;12.60;8.23;;;26.00;56.90;;;;;;6094327;23;96322;-85
2022/07/21 07:17:49;;;;;;;14.52;7.38;;;26.00;57.00;;;;;;6095084;23;92457;-86
2022/07/21 07:20:15;;;;;;;13.40;8.35;;;25.90;57.40;;;;;;6093949;23;92408;-86
2022/07/21 07:22:40;;;;;;;13.60;8.07;;;25.90;57.50;;;;;;6091138;23;92368;-85
2022/07/21 07:25:08;;;;;;;16.77;7.72;;;25.90;57.50;;;;;;6014565;23;104703;-85
2022/07/21 07:27:34;;;;;;;13.77;8.38;;;25.90;57.60;;;;;;6094879;23;93724;-85
2022/07/21 07:29:59;;;;;;;18.05;9.02;;;26.00;58.10;;;;;;6094685;23;92336;-85
2022/07/21 07:32:25;;;;;;;15.85;9.20;;;25.90;57.60;;;;;;6096218;23;92001;-85
2022/07/21 07:34:51;;;;;;;13.90;8.52;;;26.00;58.00;;;;;;6096446;23;92347;-87
2022/07/21 07:37:16;;;;;;;13.55;8.93;;;26.00;57.60;;;;;;6096888;23;92715;-86
2022/07/21 07:39:42;;;;;;;17.88;9.30;;;25.90;57.70;;;;;;6098003;23;92210;-86
2022/07/21 07:42:08;;;;;;;14.93;8.40;;;25.90;57.60;;;;;;6098249;23;91486;-85
2022/07/21 07:44:33;;;;;;;16.17;8.85;;;25.80;57.80;;;;;;6097487;23;92327;-85
2022/07/21 07:47:01;;;;;;;13.50;9.15;;;25.80;58.00;;;;;;6097605;23;92355;-85
2022/07/21 07:49:28;;;;;;;18.67;10.07;;;25.90;58.50;;;;;;6096284;23;93254;-86
2022/07/21 07:51:54;;;;;;;16.88;9.73;;;25.80;59.30;;;;;;6069944;23;92150;-85
2022/07/21 07:54:24;;;;;;;17.80;10.13;;;25.80;59.40;;;;;;6096984;23;93167;-85
2022/07/21 07:56:50;;;;;;;18.02;10.05;;;25.80;60.00;;;;;;6070039;23;94035;-85
2022/07/21 07:59:15;;;;;;;14.32;9.30;;;25.80;60.80;;;;;;6097044;23;92302;-85
2022/07/21 08:01:42;;;;;;;14.18;9.65;;;25.70;60.50;;;;;;6097915;23;91741;-85
2022/07/21 08:04:07;;;;;;;14.65;9.45;;;25.70;60.50;;;;;;6097740;23;93583;-86
2022/07/21 08:06:33;;;;;;;16.75;10.10;;;25.70;60.50;;;;;;6097660;23;93189;-85
2022/07/21 08:08:59;;;;;;;13.20;9.13;;;25.70;60.60;;;;;;6071193;23;91928;-85
2022/07/21 08:11:25;;;;;;;17.88;10.45;;;25.70;61.20;;;;;;6097575;23;92231;-85
2022/07/21 08:13:51;;;;;;;17.95;9.80;;;25.70;62.10;;;;;;6069308;23;97269;-85
2022/07/21 08:16:17;;;;;;;14.13;9.55;;;25.60;62.10;;;;;;6097319;23;93664;-85
2022/07/21 08:18:43;;;;;;;13.77;9.50;;;25.60;62.00;;;;;;6098107;23;92083;-86
2022/07/21 08:21:10;;;;;;;15.20;9.63;;;25.60;62.50;;;;;;6070995;23;92126;-85
2022/07/21 08:23:36;;;;;;;15.23;9.23;;;25.60;62.60;;;;;;6097209;23;93884;-86
2022/07/21 08:26:02;;;;;;;14.07;8.90;;;25.70;63.00;;;;;;6098061;23;92926;-86
2022/07/21 08:28:29;;;;;;;17.17;9.45;;;25.60;62.50;;;;;;6071938;23;92180;-84
2022/07/21 08:30:54;;;;;;;12.73;9.63;;;25.70;62.30;;;;;;6098218;23;92116;-86
2022/07/21 08:33:20;;;;;;;14.23;9.18;;;25.60;62.50;;;;;;6096099;23;92824;-83
2022/07/21 08:35:48;;;;;;;14.38;9.25;;;25.60;62.80;;;;;;6095828;23;92438;-84
2022/07/21 08:38:16;;;;;;;15.73;9.10;;;25.60;63.00;;;;;;6096465;23;92910;-87
2022/07/21 08:40:46;;;;;;;11.32;8.48;;;25.60;63.30;;;;;;6096661;23;92005;-87
2022/07/21 08:43:13;;;;;;;17.65;8.63;;;25.60;63.30;;;;;;6070703;23;96745;-86
2022/07/21 08:45:40;;;;;;;19.73;8.82;;;25.60;63.10;;;;;;6070264;23;96771;-87
2022/07/21 08:48:06;;;;;;;12.60;7.88;;;25.60;65.20;;;;;;6097517;23;92317;-86
2022/07/21 08:50:35;;;;;;;12.90;8.43;;;25.60;65.00;;;;;;6096556;23;92427;-85
2022/07/21 08:53:01;;;;;;;13.23;8.05;;;25.60;64.90;;;;;;6097326;23;93649;-86
2022/07/21 08:55:32;;;;;;;13.18;7.43;;;25.60;66.90;;;;;;6097970;23;93091;-85
2022/07/21 08:57:58;;;;;;;12.75;7.97;;;25.60;65.50;;;;;;6070890;23;92366;-87
2022/07/21 09:00:24;;;;;;;24.63;10.10;;;25.50;65.30;;;;;;6097563;23;91984;-86
2022/07/21 09:03:07;;;;;;;25.83;10.77;;;25.50;64.10;;;;;;6096168;23;94585;-86
2022/07/21 09:05:32;;;;;;;25.30;11.00;;;25.50;63.90;;;;;;6068874;23;97616;-86
2022/07/21 09:07:58;;;;;;;26.80;10.60;;;25.50;64.90;;;;;;6096243;23;92247;-88
2022/07/21 09:10:27;;;;;;;20.00;9.70;;;25.60;64.10;;;;;;6070103;23;92285;-88
2022/07/21 09:12:54;;;;;;;;;;;25.60;63.90;;;;;;6097857;23;94121;-87
2022/07/21 09:15:22;;;;;;;19.77;10.65;;;25.50;64.10;;;;;;6099396;23;93501;-87
2022/07/21 09:18:14;;;;;;;20.50;10.23;;;25.40;64.00;;;;;;6097002;23;92329;-87
2022/07/21 09:20:53;;;;;;;13.75;9.32;;;25.50;63.80;;;;;;6071586;23;91777;-88
2022/07/21 09:23:21;;;;;;;11.90;8.90;;;25.40;63.80;;;;;;6096983;23;92785;-88
2022/07/21 09:25:56;;;;;;;16.10;9.80;;;25.50;63.70;;;;;;6097547;23;92716;-88
2022/07/21 09:28:29;;;;;;;14.32;9.77;;;25.50;63.80;;;;;;6097073;23;93184;-88
2022/07/21 09:31:08;;;;;;;12.05;9.60;;;25.40;63.70;;;;;;6098232;23;91859;-88
2022/07/21 09:33:43;;;;;;;13.80;9.80;;;25.40;64.00;;;;;;6069990;23;96508;-86
2022/07/21 09:36:19;;;;;;;13.18;9.77;;;25.30;63.80;;;;;;6070017;23;96444;-87
2022/07/21 09:38:50;;;;;;;14.25;9.30;;;25.40;63.50;;;;;;6035547;23;92491;-88
2022/07/21 09:41:20;;;;;;;15.73;10.93;;;25.40;63.90;;;;;;6035202;23;92266;-88
2022/07/21 09:43:49;;;;;;;14.32;9.98;;;25.40;63.90;;;;;;6034430;23;92103;-88
2022/07/21 09:46:18;;;;;;;14.38;10.65;;;25.30;63.70;;;;;;6035203;23;95247;-88
2022/07/21 09:48:46;;;;;;;13.02;10.25;;;25.30;63.90;;;;;;6010407;23;92300;-88
2022/07/21 09:51:37;;;;;;;14.93;10.48;;;25.20;63.90;;;;;;6033909;23;92254;-88
2022/07/21 09:54:04;;;;;;;13.55;10.25;;;25.30;64.00;;;;;;6033259;23;98033;-88
2022/07/21 09:56:32;;;;;;;17.95;11.30;;;25.30;64.40;;;;;;6034125;23;94173;-87
2022/07/21 09:58:59;;;;;;;15.07;11.43;;;25.30;64.10;;;;;;6034736;23;92472;-88
2022/07/21 10:01:26;;;;;;;17.50;10.95;;;25.30;64.20;;;;;;6010085;23;92326;-87
2022/07/21 10:03:53;;;;;;;16.50;12.77;;;25.20;64.20;;;;;;6009429;23;96162;-88
2022/07/21 10:06:23;;;;;;;16.38;12.38;;;25.30;64.40;;;;;;6006018;23;94871;-87
2022/07/21 10:08:49;;;;;;;16.83;12.48;;;25.30;64.70;;;;;;6008025;23;92290;-88
2022/07/21 10:11:15;;;;;;;18.02;11.82;;;25.30;64.90;;;;;;6010837;23;91448;-86
2022/07/21 10:13:41;;;;;;;18.17;13.73;;;25.30;64.70;;;;;;6033688;23;95829;-87
2022/07/21 10:16:11;;;;;;;17.85;12.85;;;25.30;64.80;;;;;;6010489;23;96576;-87
2022/07/21 10:19:01;;;;;;;20.13;14.32;;;25.20;65.00;;;;;;6033592;23;93560;-87
2022/07/21 10:21:41;;;;;;;18.58;14.98;;;25.20;65.40;;;;;;6009653;23;92514;-86
2022/07/21 10:24:10;;;;;;;17.33;13.48;;;25.20;65.50;;;;;;6010605;23;96057;-87
2022/07/21 10:26:36;;;;;;;19.70;15.20;;;25.20;65.60;;;;;;6034190;23;93275;-87
2022/07/21 10:29:02;;;;;;;22.08;15.07;;;25.20;65.60;;;;;;6010492;23;92306;-86
2022/07/21 10:31:28;;;;;;;18.75;14.68;;;25.20;65.60;;;;;;6034695;23;91843;-88
2022/07/21 10:34:00;;;;;;;20.10;15.10;;;25.20;65.60;;;;;;6034054;23;94049;-87
2022/07/21 10:36:28;;;;;;;22.15;15.82;;;25.20;65.60;;;;;;6034728;23;92766;-88
2022/07/21 10:39:08;;;;;;;20.75;15.68;;;25.20;65.70;;;;;;6034829;23;92436;-90
2022/07/21 10:41:40;;;;;;;22.60;14.60;;;25.20;66.10;;;;;;6033876;23;91938;-86
2022/07/21 10:44:38;;;;;;;17.05;13.65;;;25.20;66.10;;;;;;6044995;23;99793;-88
2022/07/21 10:47:05;;;;;;;15.98;12.10;;;25.20;65.90;;;;;;5952723;23;97187;-87
2022/07/21 10:49:47;;;;;;;13.30;10.63;;;25.20;65.70;;;;;;5881086;23;92520;-87
2022/07/21 10:52:34;;;;;;;9.55;8.35;;;25.20;65.40;;;;;;5952273;23;92567;-88
2022/07/21 10:55:17;;;;;;;8.20;6.60;;;25.30;64.70;;;;;;5976762;23;93405;-87
2022/07/21 10:57:43;;;;;;;7.75;6.22;;;25.20;64.40;;;;;;5950774;23;96384;-87
2022/07/21 11:00:28;;;;;;;6.55;5.75;;;25.20;64.70;;;;;;5950106;23;92629;-87
2022/07/21 11:02:57;;;;;;;8.07;4.70;;;25.10;64.60;;;;;;5953275;23;91685;-87
2022/07/21 11:05:24;;;;;;;;;;;25.10;64.50;;;;;;5977355;23;93683;-88
2022/07/21 11:08:08;;;;;;;4.68;3.80;;;25.10;64.40;;;;;;5953790;23;95669;-87
2022/07/21 11:10:37;;;;;;;5.15;3.85;;;25.10;64.50;;;;;;5977552;23;93111;-86
2022/07/21 11:13:02;;;;;;;4.80;3.55;;;25.10;64.00;;;;;;5977855;23;92390;-85
2022/07/21 11:15:54;;;;;;;4.75;3.65;;;25.10;64.10;;;;;;5976532;23;93215;-86
2022/07/21 11:18:22;;;;;;;5.65;3.10;;;25.10;64.50;;;;;;5952276;23;96764;-85
2022/07/21 11:21:20;;;;;;;4.22;3.03;;;25.10;64.60;;;;;;5952942;23;91987;-86
2022/07/21 11:23:48;;;;;;;5.50;3.25;;;25.10;64.80;;;;;;5997101;23;93277;-87
2022/07/21 11:26:18;;;;;;;5.90;3.20;;;25.10;64.70;;;;;;6005427;23;93771;-87
2022/07/21 11:28:46;;;;;;;4.25;3.03;;;25.10;64.60;;;;;;6006493;23;91569;-85
2022/07/21 11:31:23;;;;;;;6.78;3.33;;;25.10;64.90;;;;;;5982409;23;92012;-84
2022/07/21 11:33:49;;;;;;;6.85;3.40;;;25.10;65.50;;;;;;5981658;23;92041;-85
2022/07/21 11:36:30;;;;;;;5.47;3.10;;;25.00;65.70;;;;;;6004777;23;93010;-84
2022/07/21 11:39:05;;;;;;;9.18;3.15;;;24.90;66.10;;;;;;6005451;23;92425;-84
2022/07/21 11:41:31;;;;;;;7.20;3.65;;;24.80;66.40;;;;;;6005362;23;92513;-86
2022/07/21 11:43:57;;;;;;;5.47;4.13;;;24.70;66.70;;;;;;6005203;23;91862;-84
2022/07/21 11:46:23;;;;;;;9.98;3.80;;;24.70;66.50;;;;;;6004530;23;93433;-84
2022/07/21 11:48:59;;;;;;;6.10;4.03;;;24.70;67.30;;;;;;6005608;23;93515;-84
2022/07/21 11:51:27;;;;;;;10.52;5.10;;;24.70;67.20;;;;;;6005163;23;92261;-84
2022/07/21 11:53:55;;;;;;;10.10;5.72;;;24.60;67.50;;;;;;6005505;23;91619;-85
2022/07/21 11:56:20;;;;;;;10.02;5.35;;;24.60;67.60;;;;;;6005073;23;93697;-84
2022/07/21 11:58:48;;;;;;;11.82;5.00;;;24.60;67.70;;;;;;6025574;23;93142;-84
2022/07/21 12:01:13;;;;;;;13.35;5.97;;;24.60;67.80;;;;;;6095170;23;93179;-84
2022/07/21 12:03:50;;;;;;;11.15;4.68;;;24.60;67.80;;;;;;6095930;23;92244;-85
2022/07/21 12:06:17;;;;;;;10.25;5.53;;;24.60;66.80;;;;;;6094950;23;93198;-85
2022/07/21 12:08:44;;;;;;;9.98;5.05;;;24.60;66.90;;;;;;6095375;23;92739;-84
2022/07/21 12:11:12;;;;;;;8.63;5.03;;;24.50;66.90;;;;;;6094971;23;92539;-83
2022/07/21 12:14:00;;;;;;;9.02;4.78;;;24.60;66.50;;;;;;6069079;23;91781;-84
2022/07/21 12:16:26;;;;;;;10.07;5.00;;;24.60;66.40;;;;;;6068224;23;95968;-85
2022/07/21 12:19:12;;;;;;;14.77;6.38;;;24.50;66.40;;;;;;6095449;23;92924;-83
2022/07/21 12:21:45;;;;;;;12.18;5.85;;;24.60;66.40;;;;;;6094935;23;91963;-81
2022/07/21 12:24:11;;;;;;;10.43;5.45;;;24.50;66.00;;;;;;6093711;23;92348;-82
2022/07/21 12:26:36;;;;;;;10.50;4.82;;;24.60;65.70;;;;;;6093667;23;93676;-82
2022/07/21 12:29:02;;;;;;;13.95;5.18;;;24.70;65.80;;;;;;6093211;23;93031;-82
2022/07/21 12:31:27;;;;;;;8.25;4.55;;;24.70;65.50;;;;;;6093669;23;92491;-81
2022/07/21 12:33:58;;;;;;;10.43;5.03;;;24.60;65.60;;;;;;6093871;23;92357;-81
2022/07/21 12:36:26;;;;;;;12.18;4.93;;;24.60;65.30;;;;;;6093971;23;94435;-84
2022/07/21 12:38:51;;;;;;;7.90;5.07;;;24.60;65.90;;;;;;6070484;23;96695;-84
2022/07/21 12:41:22;;;;;;;17.05;5.50;;;24.60;69.50;;;;;;6097959;23;91799;-84
2022/07/21 12:43:58;;;;;;;11.93;5.60;;;24.60;71.50;;;;;;6098382;23;91304;-83
2022/07/21 12:46:33;;;;;;;9.52;5.97;;;24.60;71.60;;;;;;6096863;23;96166;-83
2022/07/21 12:49:07;;;;;;;11.40;6.32;;;24.50;74.60;;;;;;6097151;23;93131;-84
2022/07/21 12:51:32;;;;;;;9.98;5.82;;;24.50;72.10;;;;;;6070703;23;93361;-84